Time;durP1;ratioP1;P1;durP2;ratioP2;P2;SDS_P1;SDS_P2;PMS_P1;PMS_P2;Temp;Humidity;BMP_temperature;BMP_pressure;BME280_temperature;BME280_humidity;BME280_pressure;Samples;Min_cycle;Max_cycle;Signal;HPM_P1;HPM_P2
2023/01/19 00:02:24;;;;;;;9.23;5.80;;;3.00;99.90;;;;;;5039341;28;20424;-92
2023/01/19 00:04:50;;;;;;;8.77;6.05;;;3.30;99.90;;;;;;5044971;28;20071;-92
2023/01/19 00:07:16;;;;;;;8.73;6.07;;;3.00;99.90;;;;;;5030434;28;20049;-92
2023/01/19 00:09:41;;;;;;;12.35;6.18;;;3.10;99.90;;;;;;5024134;28;20120;-92
2023/01/19 00:12:07;;;;;;;9.73;5.93;;;3.00;99.90;;;;;;5028125;28;20500;-91
2023/01/19 00:14:33;;;;;;;11.35;6.03;;;3.00;99.90;;;;;;5025090;28;20067;-91
2023/01/19 00:17:00;;;;;;;11.20;5.57;;;3.20;99.90;;;;;;5025608;28;20045;-92
2023/01/19 00:19:27;;;;;;;7.50;5.70;;;3.40;99.90;;;;;;5075924;28;20564;-92
2023/01/19 00:21:52;;;;;;;11.23;5.10;;;3.30;99.90;;;;;;5029191;28;20373;-92
2023/01/19 00:24:19;;;;;;;8.40;5.30;;;3.40;99.90;;;;;;5045123;28;20060;-91
2023/01/19 00:26:45;;;;;;;11.18;5.40;;;3.70;99.90;;;;;;5025787;28;20033;-91
2023/01/19 00:29:12;;;;;;;8.60;5.28;;;3.40;99.90;;;;;;5027744;28;20106;-91
2023/01/19 00:31:38;;;;;;;7.82;5.20;;;3.40;99.90;;;;;;5040706;28;20768;-91
2023/01/19 00:34:05;;;;;;;9.52;4.68;;;3.40;99.90;;;;;;5043594;28;20105;-91
2023/01/19 00:36:31;;;;;;;8.27;4.20;;;3.60;99.90;;;;;;5044170;28;20033;-91
2023/01/19 00:38:57;;;;;;;6.95;4.05;;;3.40;99.90;;;;;;5041215;28;20037;-91
2023/01/19 00:44:11;;;;;;;8.52;3.50;;;3.50;99.90;;;;;;5041831;28;20488;-91
2023/01/19 00:46:37;;;;;;;7.03;2.75;;;3.70;99.90;;;;;;5042744;28;20040;-91
2023/01/19 00:49:03;;;;;;;7.22;2.70;;;3.70;99.90;;;;;;5024534;28;20040;-91
2023/01/19 00:51:28;;;;;;;4.70;2.65;;;3.70;99.90;;;;;;5024189;28;20036;-91
2023/01/19 00:53:54;;;;;;;3.25;2.03;;;3.50;99.90;;;;;;5044161;28;20468;-92
2023/01/19 00:56:20;;;;;;;6.30;2.03;;;3.70;99.90;;;;;;5040607;28;20045;-91
2023/01/19 00:58:45;;;;;;;3.92;2.08;;;3.60;99.90;;;;;;5037222;28;20036;-92
2023/01/19 01:01:13;;;;;;;4.88;2.15;;;3.70;99.90;;;;;;5025493;28;20056;-91
2023/01/19 01:03:38;;;;;;;2.75;1.70;;;3.70;99.90;;;;;;5059825;28;20044;-92
2023/01/19 01:06:07;;;;;;;10.43;2.10;;;3.70;99.90;;;;;;5026689;28;20033;-91
2023/01/19 01:08:33;;;;;;;5.03;2.03;;;3.90;99.90;;;;;;5025671;28;20493;-91
2023/01/19 01:11:01;;;;;;;4.22;1.73;;;3.80;99.90;;;;;;5023956;28;20131;-92
2023/01/19 01:13:27;;;;;;;5.43;1.85;;;3.80;99.90;;;;;;5023695;28;20568;-91
2023/01/19 01:15:54;;;;;;;5.20;1.77;;;4.00;99.90;;;;;;5025471;28;20035;-91
2023/01/19 01:18:20;;;;;;;6.22;2.00;;;4.00;99.90;;;;;;5029081;28;20098;-93
2023/01/19 01:20:46;;;;;;;5.50;2.17;;;3.80;99.90;;;;;;5045484;28;20294;-92
2023/01/19 01:23:12;;;;;;;5.15;2.33;;;3.90;99.90;;;;;;5044004;28;20612;-92
2023/01/19 01:25:38;;;;;;;4.82;3.60;;;3.80;99.90;;;;;;5024484;28;20037;-91
2023/01/19 01:28:07;;;;;;;5.75;3.50;;;3.70;99.90;;;;;;5073380;28;20480;-91
2023/01/19 01:30:34;;;;;;;5.97;4.30;;;3.50;99.90;;;;;;5042130;28;20044;-91
2023/01/19 01:33:00;;;;;;;5.30;4.00;;;3.50;99.90;;;;;;5040914;28;20074;-92
2023/01/19 01:35:25;;;;;;;5.00;3.60;;;3.40;99.90;;;;;;5043509;28;20037;-92
2023/01/19 01:37:51;;;;;;;4.97;3.67;;;3.40;99.90;;;;;;5027124;28;20568;-91
2023/01/19 01:40:18;;;;;;;7.10;3.80;;;3.60;99.90;;;;;;5025750;28;20041;-91
2023/01/19 01:42:44;;;;;;;6.93;4.10;;;3.40;99.90;;;;;;5027994;28;20136;-91
2023/01/19 01:45:34;;;;;;;5.85;4.40;;;3.40;99.90;;;;;;5043046;28;20044;-90
2023/01/19 01:48:07;;;;;;;6.97;4.70;;;3.30;99.90;;;;;;5035801;28;20059;-92
2023/01/19 01:53:37;;;;;;;6.32;4.43;;;3.50;99.90;;;;;;5040838;28;20105;-92
2023/01/19 01:56:08;;;;;;;6.00;4.28;;;3.20;99.90;;;;;;5042295;28;20098;-91
2023/01/19 01:58:35;;;;;;;7.82;4.57;;;3.40;99.90;;;;;;5041835;28;20041;-91
2023/01/19 02:03:45;;;;;;;7.43;4.43;;;3.30;99.90;;;;;;5039271;28;20056;-92
2023/01/19 02:06:14;;;;;;;6.43;4.57;;;3.40;99.90;;;;;;5043217;28;20044;-91
2023/01/19 02:14:20;;;;;;;8.20;4.47;;;3.20;99.90;;;;;;5038649;28;20045;-91
2023/01/19 02:16:46;;;;;;;7.72;4.60;;;3.20;99.90;;;;;;5042725;28;20090;-92
2023/01/19 02:19:23;;;;;;;9.82;5.13;;;3.30;99.90;;;;;;5043135;28;20106;-92
2023/01/19 02:21:56;;;;;;;11.52;4.75;;;3.30;99.90;;;;;;5051789;28;20093;-91
2023/01/19 02:24:23;;;;;;;10.48;5.03;;;3.30;99.90;;;;;;5037331;28;20192;-91
2023/01/19 02:26:49;;;;;;;7.55;5.18;;;3.30;99.90;;;;;;5026051;28;20131;-91
2023/01/19 02:29:18;;;;;;;11.00;5.65;;;3.30;99.90;;;;;;5042869;28;20048;-91
2023/01/19 02:31:44;;;;;;;8.43;5.90;;;3.20;99.90;;;;;;5041764;28;20044;-92
2023/01/19 02:34:14;;;;;;;10.85;6.15;;;3.40;99.90;;;;;;5041559;28;20132;-91
2023/01/19 02:37:19;;;;;;;9.48;5.43;;;3.30;99.90;;;;;;5025406;28;20064;-91
2023/01/19 02:39:53;;;;;;;11.35;6.32;;;3.20;99.90;;;;;;5013081;28;20485;-92
2023/01/19 02:42:30;;;;;;;11.03;6.10;;;3.40;99.90;;;;;;4994423;28;20293;-91
2023/01/19 02:44:56;;;;;;;11.13;6.32;;;3.30;99.90;;;;;;5021857;28;20378;-91
2023/01/19 02:47:23;;;;;;;9.18;6.03;;;3.40;99.90;;;;;;5042291;28;20037;-92
2023/01/19 02:49:59;;;;;;;11.65;5.85;;;3.10;99.90;;;;;;5043467;28;20076;-91
2023/01/19 02:52:25;;;;;;;9.63;5.93;;;3.10;99.90;;;;;;5022833;28;20119;-91
2023/01/19 02:54:59;;;;;;;8.50;5.88;;;3.40;99.90;;;;;;5041291;28;20129;-91
2023/01/19 02:57:48;;;;;;;13.10;6.83;;;3.50;99.90;;;;;;5038279;28;20106;-91
2023/01/19 03:00:51;;;;;;;8.60;6.50;;;3.50;99.90;;;;;;5043494;28;20454;-91
2023/01/19 03:03:38;;;;;;;10.15;6.47;;;3.50;99.90;;;;;;5043565;28;20044;-91
2023/01/19 03:06:32;;;;;;;11.57;6.47;;;3.50;99.90;;;;;;5035856;28;20117;-92
2023/01/19 03:09:01;;;;;;;10.82;6.97;;;3.30;99.90;;;;;;5067874;28;20048;-91
2023/01/19 03:11:32;;;;;;;13.95;7.22;;;3.30;99.90;;;;;;5032720;28;20399;-92
2023/01/19 03:14:05;;;;;;;13.55;8.43;;;3.30;99.90;;;;;;5034576;28;20047;-92
2023/01/19 03:16:52;;;;;;;14.02;8.02;;;3.60;99.90;;;;;;5035584;28;20507;-92
2023/01/19 03:19:48;;;;;;;11.98;7.43;;;3.40;99.90;;;;;;5033724;28;20056;-91
2023/01/19 03:22:22;;;;;;;16.15;8.48;;;3.60;99.90;;;;;;5028979;28;20525;-91
2023/01/19 03:24:49;;;;;;;;;;;3.50;99.90;;;;;;5048405;28;20051;-91
2023/01/19 03:27:27;;;;;;;13.38;7.65;;;3.40;99.90;;;;;;5063944;28;19926;-92
2023/01/19 03:30:08;;;;;;;16.33;8.32;;;3.60;99.90;;;;;;5069699;28;20219;-92
2023/01/19 03:32:38;;;;;;;12.57;8.55;;;3.50;99.90;;;;;;5035195;28;20048;-91
2023/01/19 03:35:11;;;;;;;13.90;8.30;;;3.60;99.90;;;;;;5035100;28;20066;-92
2023/01/19 03:37:41;;;;;;;15.45;8.82;;;3.70;99.90;;;;;;5032052;28;20032;-91
2023/01/19 03:40:08;;;;;;;15.93;9.10;;;3.40;99.90;;;;;;5049110;28;20076;-91
2023/01/19 03:42:35;;;;;;;13.45;8.27;;;3.70;99.90;;;;;;5038064;28;20146;-91
2023/01/19 03:45:02;;;;;;;16.42;9.35;;;3.60;99.90;;;;;;5050990;28;20438;-92
2023/01/19 03:47:28;;;;;;;14.30;8.55;;;3.40;99.90;;;;;;5056583;28;20158;-92
2023/01/19 03:49:56;;;;;;;13.93;8.63;;;3.50;99.90;;;;;;5046776;28;20507;-92
2023/01/19 03:52:28;;;;;;;15.02;8.07;;;3.60;99.90;;;;;;5036119;28;20051;-91
2023/01/19 03:54:56;;;;;;;12.77;7.78;;;3.30;99.90;;;;;;5056377;28;20029;-92
2023/01/19 03:57:22;;;;;;;13.05;7.95;;;3.50;99.90;;;;;;5035822;28;20424;-92
2023/01/19 03:59:48;;;;;;;13.10;7.88;;;3.40;99.90;;;;;;5035168;28;20076;-91
2023/01/19 04:02:14;;;;;;;13.75;7.45;;;3.40;99.90;;;;;;5033526;28;20048;-91
2023/01/19 04:04:39;;;;;;;12.60;6.88;;;3.70;99.90;;;;;;5051099;28;20045;-92
2023/01/19 04:07:05;;;;;;;11.38;6.70;;;3.70;99.90;;;;;;5048813;28;20040;-91
2023/01/19 04:09:31;;;;;;;13.77;7.03;;;3.70;99.90;;;;;;5064168;28;20053;-91
2023/01/19 04:12:00;;;;;;;9.80;6.15;;;3.80;99.90;;;;;;5038297;28;20058;-92
2023/01/19 04:14:29;;;;;;;11.98;6.30;;;3.50;99.90;;;;;;5038841;28;20037;-92
2023/01/19 04:16:55;;;;;;;10.32;6.13;;;3.50;99.90;;;;;;5033382;28;20558;-92
2023/01/19 04:19:21;;;;;;;10.73;5.85;;;3.80;99.90;;;;;;5051053;28;20063;-91
2023/01/19 04:21:50;;;;;;;12.27;6.90;;;3.60;99.90;;;;;;5031979;28;20415;-91
2023/01/19 04:24:16;;;;;;;10.52;5.72;;;3.70;99.90;;;;;;5050151;28;20495;-92
2023/01/19 04:26:42;;;;;;;9.73;5.85;;;3.60;99.90;;;;;;5051510;28;20036;-91
2023/01/19 04:29:08;;;;;;;9.88;5.97;;;3.70;99.90;;;;;;5046640;28;20072;-92
2023/01/19 04:31:34;;;;;;;16.02;6.07;;;3.70;99.90;;;;;;5049689;28;20065;-91
2023/01/19 04:34:00;;;;;;;8.82;5.72;;;3.90;99.90;;;;;;5050551;28;20553;-92
2023/01/19 04:36:27;;;;;;;9.48;5.78;;;3.50;99.90;;;;;;5034485;28;20036;-92
2023/01/19 04:38:53;;;;;;;10.43;5.55;;;3.50;99.90;;;;;;5036054;28;20037;-91
2023/01/19 04:41:19;;;;;;;7.50;4.50;;;3.90;99.90;;;;;;5036293;28;20068;-91
2023/01/19 04:43:46;;;;;;;9.68;5.07;;;3.80;99.90;;;;;;5035566;28;20072;-92
2023/01/19 04:46:14;;;;;;;10.27;4.85;;;3.60;99.90;;;;;;5051069;28;20044;-92
2023/01/19 04:48:40;;;;;;;6.25;3.70;;;3.60;99.90;;;;;;5065879;28;20123;-92
2023/01/19 04:51:06;;;;;;;6.78;4.38;;;3.80;99.90;;;;;;5036652;28;20409;-92
2023/01/19 04:53:31;;;;;;;8.57;4.43;;;3.90;99.90;;;;;;5068253;28;20102;-91
2023/01/19 04:55:58;;;;;;;7.30;4.28;;;3.80;99.90;;;;;;5051809;28;20396;-92
2023/01/19 04:58:24;;;;;;;10.98;4.90;;;3.70;99.90;;;;;;5067370;28;20479;-91
2023/01/19 05:00:51;;;;;;;7.63;4.13;;;3.70;99.90;;;;;;5051290;28;20105;-92
2023/01/19 05:03:19;;;;;;;7.25;4.05;;;3.60;99.90;;;;;;5051216;28;20048;-91
2023/01/19 05:05:45;;;;;;;7.43;4.25;;;3.90;99.90;;;;;;5049960;28;20049;-91
2023/01/19 05:08:11;;;;;;;8.35;4.63;;;3.70;99.90;;;;;;5050424;28;20044;-91
2023/01/19 05:10:37;;;;;;;8.20;4.10;;;3.50;99.90;;;;;;5050289;28;20108;-90
2023/01/19 05:13:04;;;;;;;9.45;4.38;;;3.60;99.90;;;;;;5051239;28;20484;-91
2023/01/19 05:15:30;;;;;;;9.00;4.20;;;3.80;99.90;;;;;;5033685;28;20036;-91
2023/01/19 05:17:57;;;;;;;9.15;4.18;;;3.80;99.90;;;;;;5032875;28;20047;-92
2023/01/19 05:20:23;;;;;;;6.28;3.58;;;3.70;99.90;;;;;;5052946;28;20165;-92
2023/01/19 05:22:51;;;;;;;7.10;3.75;;;3.80;99.90;;;;;;5067510;28;20083;-91
2023/01/19 05:25:17;;;;;;;7.68;3.60;;;3.60;99.90;;;;;;5066982;28;20436;-92
2023/01/19 05:27:43;;;;;;;11.18;4.30;;;3.40;99.90;;;;;;5051988;28;20127;-91
2023/01/19 05:30:10;;;;;;;10.52;4.13;;;3.40;99.90;;;;;;5034847;28;20045;-92
2023/01/19 05:32:35;;;;;;;8.23;3.22;;;3.50;99.90;;;;;;5036010;28;20103;-91
2023/01/19 05:35:01;;;;;;;8.93;3.60;;;3.50;99.90;;;;;;5034315;28;20518;-91
2023/01/19 05:38:06;;;;;;;7.97;3.30;;;3.60;99.90;;;;;;5035593;28;20457;-91
2023/01/19 05:40:38;;;;;;;4.57;2.67;;;3.60;99.90;;;;;;5042619;28;20086;-91
2023/01/19 05:43:32;;;;;;;5.22;2.80;;;3.70;99.90;;;;;;5055688;28;20491;-88
2023/01/19 05:45:57;;;;;;;4.10;2.33;;;3.60;99.90;;;;;;5036577;28;20473;-92
2023/01/19 05:48:23;;;;;;;7.45;2.22;;;3.80;99.90;;;;;;5054820;28;20048;-92
2023/01/19 05:50:49;;;;;;;6.80;2.45;;;3.70;99.90;;;;;;5050654;28;20052;-92
2023/01/19 05:53:18;;;;;;;6.00;2.10;;;3.80;99.90;;;;;;5031849;28;20040;-91
2023/01/19 05:55:43;;;;;;;6.53;2.08;;;3.60;99.90;;;;;;5047859;28;20507;-92
2023/01/19 05:58:09;;;;;;;5.70;2.35;;;3.60;99.90;;;;;;5045634;28;20049;-91
2023/01/19 06:00:38;;;;;;;4.10;1.58;;;3.80;99.90;;;;;;5049047;28;20040;-91
2023/01/19 06:03:05;;;;;;;1.45;0.80;;;3.80;99.90;;;;;;5046711;28;20160;-91
2023/01/19 06:05:31;;;;;;;5.20;1.10;;;3.80;99.90;;;;;;5046039;28;20049;-92
2023/01/19 06:07:56;;;;;;;6.28;1.73;;;4.10;99.90;;;;;;5048618;28;20043;-91
2023/01/19 06:10:22;;;;;;;6.53;1.60;;;4.10;99.90;;;;;;5028065;28;20084;-91
2023/01/19 06:12:48;;;;;;;5.50;1.10;;;4.10;99.90;;;;;;5048771;28;20051;-92
2023/01/19 06:15:14;;;;;;;10.73;1.40;;;4.10;99.90;;;;;;5049457;28;20040;-91
2023/01/19 06:17:41;;;;;;;2.80;1.20;;;4.10;99.90;;;;;;5048897;28;20056;-91
2023/01/19 06:20:08;;;;;;;6.13;1.08;;;4.00;99.90;;;;;;5049177;28;20268;-92
2023/01/19 06:22:36;;;;;;;4.55;1.17;;;4.00;99.90;;;;;;5031789;28;20079;-92
2023/01/19 06:25:02;;;;;;;5.85;0.98;;;4.00;99.90;;;;;;5046784;28;20174;-93
2023/01/19 06:27:28;;;;;;;4.25;0.88;;;3.80;99.90;;;;;;5046928;28;20119;-92
2023/01/19 06:29:53;;;;;;;7.88;1.20;;;3.90;99.90;;;;;;5063575;28;20488;-91
2023/01/19 06:32:22;;;;;;;3.55;1.13;;;3.80;99.90;;;;;;5033106;28;20028;-92
2023/01/19 06:34:48;;;;;;;4.78;0.90;;;3.80;99.90;;;;;;5050541;28;20612;-92
2023/01/19 06:37:15;;;;;;;6.88;0.90;;;3.70;99.90;;;;;;5048021;28;20127;-91
2023/01/19 06:39:41;;;;;;;8.45;1.02;;;3.70;99.90;;;;;;5035239;28;20185;-92
2023/01/19 06:42:07;;;;;;;7.32;1.00;;;3.60;99.90;;;;;;5038216;28;20135;-91
2023/01/19 06:44:33;;;;;;;2.28;0.70;;;3.60;99.90;;;;;;5035868;28;20036;-91
2023/01/19 06:47:02;;;;;;;2.22;0.60;;;3.70;99.90;;;;;;5047961;28;20463;-92
2023/01/19 06:49:28;;;;;;;4.15;0.88;;;3.60;99.90;;;;;;5065554;28;20716;-92
2023/01/19 06:51:53;;;;;;;7.65;1.63;;;3.60;99.90;;;;;;5035504;28;20059;-92
2023/01/19 06:54:22;;;;;;;3.90;1.70;;;3.50;99.90;;;;;;5034052;28;20044;-91
2023/01/19 06:56:47;;;;;;;3.50;1.30;;;3.50;99.90;;;;;;5036870;28;20036;-91
2023/01/19 06:59:13;;;;;;;9.48;1.70;;;3.40;99.90;;;;;;5051026;28;20097;-92
2023/01/19 07:01:39;;;;;;;9.93;1.63;;;3.40;99.90;;;;;;5051661;28;20048;-92
2023/01/19 07:04:05;;;;;;;9.07;1.45;;;3.50;99.90;;;;;;5049928;28;20040;-92
2023/01/19 07:06:30;;;;;;;10.38;1.38;;;3.60;99.90;;;;;;5067068;28;20051;-91
2023/01/19 07:08:56;;;;;;;9.60;1.50;;;3.60;99.90;;;;;;5033078;28;20044;-93
2023/01/19 07:11:22;;;;;;;6.97;1.63;;;3.50;99.90;;;;;;5035023;28;20053;-91
2023/01/19 07:13:50;;;;;;;9.65;1.80;;;3.60;99.90;;;;;;5047217;28;20174;-92
2023/01/19 07:16:16;;;;;;;7.72;1.50;;;3.60;99.90;;;;;;5069376;28;20376;-92
2023/01/19 07:18:42;;;;;;;9.05;1.67;;;3.50;99.90;;;;;;5034104;28;20048;-91
2023/01/19 07:21:08;;;;;;;8.60;1.30;;;3.90;99.90;;;;;;5032380;28;20040;-90
2023/01/19 07:23:34;;;;;;;10.20;1.42;;;4.00;99.90;;;;;;5048762;28;20044;-92
2023/01/19 07:26:00;;;;;;;6.75;2.40;;;4.00;99.90;;;;;;5049612;28;20040;-92
2023/01/19 07:28:28;;;;;;;12.02;1.90;;;3.90;99.90;;;;;;5039310;28;20040;-93
2023/01/19 07:30:54;;;;;;;9.52;1.85;;;3.90;99.90;;;;;;5050011;28;20127;-92
2023/01/19 07:33:21;;;;;;;8.63;2.03;;;4.00;99.90;;;;;;5030203;28;20315;-92
2023/01/19 07:35:48;;;;;;;5.35;1.25;;;4.00;99.90;;;;;;5034697;28;20045;-92
2023/01/19 07:38:15;;;;;;;11.07;1.98;;;3.90;99.90;;;;;;5034375;28;20044;-92
2023/01/19 07:40:41;;;;;;;8.38;1.77;;;3.70;99.90;;;;;;5032342;28;20952;-93
2023/01/19 07:43:06;;;;;;;10.55;1.60;;;3.70;99.90;;;;;;5047912;28;20046;-93
2023/01/19 07:45:34;;;;;;;9.50;1.75;;;3.80;99.90;;;;;;5050411;28;20052;-91
2023/01/19 07:48:00;;;;;;;13.57;1.70;;;3.80;99.90;;;;;;5049407;28;20463;-91
2023/01/19 07:50:28;;;;;;;9.77;1.60;;;3.70;99.90;;;;;;5082046;28;20147;-92
2023/01/19 07:52:54;;;;;;;9.07;2.13;;;3.80;99.90;;;;;;5049638;28;20043;-92
2023/01/19 07:55:21;;;;;;;11.43;2.00;;;3.80;99.90;;;;;;5032631;28;20144;-92
2023/01/19 07:57:50;;;;;;;14.70;2.35;;;3.80;99.90;;;;;;5050698;28;20040;-92
2023/01/19 08:00:24;;;;;;;8.35;1.90;;;3.90;99.90;;;;;;5036501;28;20502;-92
2023/01/19 08:02:51;;;;;;;13.00;1.80;;;4.10;99.90;;;;;;5034122;28;20082;-91
2023/01/19 08:05:17;;;;;;;10.25;2.35;;;4.10;99.90;;;;;;5051625;28;20091;-91
2023/01/19 08:07:47;;;;;;;12.32;1.90;;;4.30;99.90;;;;;;5039294;28;20117;-91
2023/01/19 08:10:16;;;;;;;10.45;2.03;;;4.30;99.90;;;;;;5034636;28;20359;-91
2023/01/19 08:12:42;;;;;;;12.50;1.95;;;4.30;99.90;;;;;;5035504;28;20047;-92
2023/01/19 08:15:09;;;;;;;13.07;2.08;;;4.30;99.90;;;;;;5051128;28;20037;-92
2023/01/19 08:17:35;;;;;;;15.15;2.35;;;4.30;99.90;;;;;;5056212;28;20044;-92
2023/01/19 08:20:01;;;;;;;8.93;1.52;;;4.30;99.90;;;;;;5028938;28;20044;-93
2023/01/19 08:22:30;;;;;;;8.23;1.88;;;4.30;99.90;;;;;;5045525;28;20044;-92
2023/01/19 08:24:55;;;;;;;10.20;1.65;;;4.30;99.90;;;;;;5050384;28;20443;-93
2023/01/19 08:27:21;;;;;;;9.77;1.75;;;4.20;99.90;;;;;;5032415;28;20076;-92
2023/01/19 08:29:47;;;;;;;9.30;1.88;;;4.20;99.90;;;;;;5065786;28;20118;-91
2023/01/19 08:32:12;;;;;;;7.30;2.65;;;4.20;99.90;;;;;;5052976;28;20105;-92
2023/01/19 08:34:38;;;;;;;11.88;2.53;;;4.20;99.90;;;;;;5050146;28;20032;-92
2023/01/19 08:37:03;;;;;;;9.68;1.95;;;4.20;99.90;;;;;;5049959;28;20032;-92
2023/01/19 08:39:29;;;;;;;10.98;2.10;;;4.20;99.90;;;;;;5048220;28;20044;-92
2023/01/19 08:41:59;;;;;;;11.80;2.08;;;4.30;99.90;;;;;;5032443;28;20116;-93
2023/01/19 08:44:26;;;;;;;10.68;1.80;;;4.30;99.90;;;;;;5030823;28;20054;-93
2023/01/19 08:46:51;;;;;;;8.25;2.33;;;4.30;99.90;;;;;;5031578;28;20066;-93
2023/01/19 08:49:17;;;;;;;17.80;2.20;;;4.20;99.90;;;;;;5048524;28;20037;-92
2023/01/19 08:51:46;;;;;;;12.98;2.38;;;4.10;99.90;;;;;;5079986;28;20128;-92
2023/01/19 08:54:15;;;;;;;11.10;2.25;;;4.20;99.90;;;;;;5047939;28;20200;-92
2023/01/19 08:56:42;;;;;;;16.20;2.45;;;4.20;99.90;;;;;;5047609;28;20475;-92
2023/01/19 08:59:07;;;;;;;15.57;3.05;;;4.10;99.90;;;;;;5048295;28;20036;-92
2023/01/19 09:01:33;;;;;;;12.45;2.90;;;4.10;99.90;;;;;;5047383;28;20113;-92
2023/01/19 09:03:59;;;;;;;13.38;2.65;;;4.20;99.90;;;;;;5048981;28;20646;-93
2023/01/19 09:06:24;;;;;;;15.70;2.70;;;4.10;99.90;;;;;;5048259;28;20531;-93
2023/01/19 09:08:50;;;;;;;20.05;3.08;;;4.00;99.90;;;;;;5048961;28;20475;-92
2023/01/19 09:11:16;;;;;;;14.43;2.65;;;4.00;99.90;;;;;;5032525;28;20463;-92
2023/01/19 09:13:42;;;;;;;17.77;3.00;;;4.00;99.90;;;;;;5034768;28;20135;-92
2023/01/19 09:16:11;;;;;;;11.25;2.40;;;3.90;99.90;;;;;;5031148;28;20039;-93
2023/01/19 09:18:37;;;;;;;14.63;2.63;;;3.90;99.90;;;;;;5048145;28;20050;-92
2023/01/19 09:21:04;;;;;;;15.23;2.22;;;3.80;99.90;;;;;;5033674;28;20044;-92
2023/01/19 09:23:30;;;;;;;21.83;2.92;;;3.90;99.90;;;;;;5033302;28;20048;-92
2023/01/19 09:26:00;;;;;;;14.82;3.75;;;3.90;99.90;;;;;;5064255;28;20082;-92
2023/01/19 09:28:28;;;;;;;12.55;2.15;;;3.80;99.90;;;;;;5046956;28;20045;-92
2023/01/19 09:30:55;;;;;;;13.32;2.78;;;3.90;99.90;;;;;;5032161;28;20523;-92
2023/01/19 09:33:21;;;;;;;14.55;2.15;;;3.80;99.90;;;;;;5030350;28;20113;-92
2023/01/19 09:35:48;;;;;;;14.93;2.75;;;3.80;99.90;;;;;;5048280;28;20493;-92
2023/01/19 09:38:15;;;;;;;17.00;2.63;;;3.90;99.90;;;;;;5033283;28;20036;-93
2023/01/19 09:40:51;;;;;;;12.48;3.10;;;3.90;99.90;;;;;;5048253;28;20076;-92
2023/01/19 09:43:26;;;;;;;16.08;2.88;;;3.80;99.90;;;;;;5063845;28;20040;-92
2023/01/19 09:45:59;;;;;;;;;;;3.90;99.90;;;;;;5046884;28;20044;-92
2023/01/19 09:48:49;;;;;;;11.50;2.53;;;3.80;99.90;;;;;;5064196;28;19947;-91
2023/01/19 09:51:36;;;;;;;19.60;2.55;;;3.70;99.90;;;;;;5047466;28;20546;-92
2023/01/19 09:54:18;;;;;;;16.38;2.55;;;3.80;99.90;;;;;;5048487;28;20507;-92
2023/01/19 09:56:46;;;;;;;19.88;2.78;;;4.00;99.90;;;;;;5033595;28;20042;-92
2023/01/19 09:59:27;;;;;;;17.17;2.95;;;4.00;99.90;;;;;;5045169;28;20062;-92
2023/01/19 10:02:01;;;;;;;14.35;2.53;;;4.20;99.90;;;;;;5047633;28;20065;-91
2023/01/19 10:04:29;;;;;;;;;;;4.30;99.90;;;;;;5047531;28;20044;-91
2023/01/19 10:07:25;;;;;;;17.33;3.17;;;4.40;99.90;;;;;;5029304;28;19993;-92
2023/01/19 10:10:18;;;;;;;12.50;2.15;;;4.40;99.90;;;;;;5028913;28;20048;-91
2023/01/19 10:13:05;;;;;;;16.50;2.85;;;4.50;99.90;;;;;;5029643;28;20040;-92
2023/01/19 10:15:55;;;;;;;18.02;2.20;;;4.70;99.90;;;;;;5051291;28;20048;-90
2023/01/19 10:18:30;;;;;;;11.43;2.58;;;4.70;99.90;;;;;;5052065;28;20475;-92
2023/01/19 10:21:16;;;;;;;10.38;2.15;;;4.80;99.90;;;;;;5084983;28;20388;-92
2023/01/19 10:24:03;;;;;;;9.43;2.35;;;4.80;99.90;;;;;;5036598;28;20424;-91
2023/01/19 10:26:51;;;;;;;6.97;2.03;;;4.90;99.90;;;;;;5050339;28;20055;-92
2023/01/19 10:29:37;;;;;;;11.38;2.22;;;4.90;99.90;;;;;;5048524;28;20040;-93
2023/01/19 10:32:24;;;;;;;10.57;2.08;;;4.80;99.90;;;;;;5035820;28;20044;-92
2023/01/19 10:34:51;;;;;;;10.20;2.05;;;4.90;99.90;;;;;;5051267;28;20129;-92
2023/01/19 10:37:30;;;;;;;14.98;2.53;;;5.00;99.90;;;;;;5050564;28;20036;-91
2023/01/19 10:40:08;;;;;;;12.80;2.50;;;5.10;99.90;;;;;;5035833;28;20051;-91
2023/01/19 10:42:35;;;;;;;11.57;2.60;;;5.10;99.90;;;;;;5082048;28;20045;-92
2023/01/19 10:45:01;;;;;;;12.32;2.55;;;5.20;99.90;;;;;;5051588;28;20169;-92
2023/01/19 10:47:34;;;;;;;10.77;2.25;;;5.20;99.90;;;;;;5035085;28;20097;-92
2023/01/19 10:50:20;;;;;;;9.82;2.15;;;5.30;99.90;;;;;;5036785;28;20067;-91
2023/01/19 10:52:58;;;;;;;7.28;1.85;;;5.40;99.90;;;;;;5068303;28;20531;-92
2023/01/19 10:55:39;;;;;;;9.18;1.73;;;5.30;99.90;;;;;;5051539;28;20470;-92
2023/01/19 10:58:25;;;;;;;8.63;2.03;;;5.30;99.90;;;;;;5031862;28;20029;-92
2023/01/19 11:00:51;;;;;;;11.45;1.80;;;5.30;99.90;;;;;;5048824;28;20137;-92
2023/01/19 11:03:30;;;;;;;8.68;1.65;;;5.20;99.90;;;;;;5047237;28;20482;-91
2023/01/19 11:06:14;;;;;;;8.13;1.80;;;5.30;99.90;;;;;;5031897;28;20248;-92
2023/01/19 11:08:43;;;;;;;10.60;1.88;;;5.20;99.90;;;;;;5040948;28;20049;-92
2023/01/19 11:11:11;;;;;;;5.72;1.27;;;5.30;99.90;;;;;;5044229;28;20110;-92
2023/01/19 11:13:41;;;;;;;13.85;2.38;;;5.30;99.90;;;;;;5028171;28;20041;-91
2023/01/19 11:16:30;;;;;;;8.70;1.50;;;5.30;99.90;;;;;;5028920;28;20429;-92
2023/01/19 11:18:57;;;;;;;11.30;2.13;;;5.30;99.90;;;;;;5031358;28;20047;-91
2023/01/19 11:21:29;;;;;;;12.20;2.65;;;5.40;99.90;;;;;;5055863;28;20484;-92
2023/01/19 11:23:58;;;;;;;16.05;2.45;;;5.40;99.90;;;;;;5027116;28;20033;-92
2023/01/19 11:26:43;;;;;;;7.50;1.70;;;5.50;99.90;;;;;;5026956;28;20056;-93
2023/01/19 11:29:25;;;;;;;14.48;2.83;;;5.60;99.90;;;;;;5026355;28;20133;-92
2023/01/19 11:31:53;;;;;;;9.20;1.92;;;5.60;99.90;;;;;;5028673;28;20041;-92
2023/01/19 11:34:22;;;;;;;9.10;2.10;;;5.60;99.90;;;;;;5023879;28;20510;-93
2023/01/19 11:37:15;;;;;;;8.65;2.50;;;5.60;99.90;;;;;;5044975;28;20121;-91
2023/01/19 11:39:49;;;;;;;11.43;2.05;;;5.60;99.90;;;;;;5009843;28;20146;-92
2023/01/19 11:42:15;;;;;;;8.02;1.65;;;5.60;99.90;;;;;;5041173;28;20041;-91
2023/01/19 11:44:50;;;;;;;10.63;1.70;;;5.70;99.90;;;;;;5025849;28;20088;-92
2023/01/19 11:47:17;;;;;;;;;;;5.70;99.90;;;;;;5047788;28;20041;-92
2023/01/19 11:49:57;;;;;;;9.20;1.55;;;5.80;99.90;;;;;;5044177;28;19933;-91
2023/01/19 11:52:39;;;;;;;5.18;1.42;;;5.80;99.90;;;;;;5038777;28;20048;-93
2023/01/19 11:55:26;;;;;;;8.18;1.70;;;5.80;99.90;;;;;;5041574;28;20237;-92
2023/01/19 11:57:53;;;;;;;6.35;1.50;;;5.90;99.90;;;;;;5027779;28;20487;-92
2023/01/19 12:00:49;;;;;;;13.18;1.65;;;5.90;99.90;;;;;;5059557;28;20033;-92
2023/01/19 12:03:38;;;;;;;9.95;1.50;;;5.90;99.90;;;;;;5047584;28;20099;-92
2023/01/19 12:06:08;;;;;;;8.95;1.25;;;6.00;99.90;;;;;;5043942;28;20448;-92
2023/01/19 12:09:20;;;;;;;7.88;1.20;;;6.00;99.90;;;;;;5026905;28;20102;-91
2023/01/19 12:11:57;;;;;;;3.83;1.48;;;6.00;99.90;;;;;;5026522;28;20050;-91
2023/01/19 12:14:38;;;;;;;6.47;1.45;;;6.00;99.90;;;;;;5056497;28;20116;-92
2023/01/19 12:17:10;;;;;;;8.60;1.40;;;6.00;99.90;;;;;;5032630;28;20052;-92
2023/01/19 12:19:52;;;;;;;4.97;1.58;;;6.00;99.90;;;;;;5042641;28;20124;-92
2023/01/19 12:22:19;;;;;;;10.07;1.45;;;6.10;99.90;;;;;;5024702;28;20392;-92
2023/01/19 12:25:04;;;;;;;9.20;1.27;;;6.10;99.90;;;;;;5041638;28;20044;-92
2023/01/19 12:27:42;;;;;;;9.57;1.38;;;6.10;99.90;;;;;;5021398;28;20662;-91
2023/01/19 12:30:15;;;;;;;9.88;1.30;;;6.20;99.90;;;;;;5041554;28;20037;-92
2023/01/19 12:32:42;;;;;;;5.03;1.10;;;6.20;99.90;;;;;;5041425;28;20056;-92
2023/01/19 12:35:46;;;;;;;9.63;2.05;;;6.30;99.90;;;;;;5042170;28;20132;-91
2023/01/19 12:38:34;;;;;;;6.68;1.38;;;6.30;46.60;;;;;;5025165;28;20044;-92
2023/01/19 12:41:35;;;;;;;8.85;1.38;;;6.50;99.90;;;;;;5027418;28;20048;-92
2023/01/19 12:44:10;;;;;;;8.98;1.42;;;6.50;46.40;;;;;;5024710;28;20056;-92
2023/01/19 12:46:37;;;;;;;6.97;1.10;;;6.70;93.50;;;;;;5043611;28;20036;-92
2023/01/19 12:49:21;;;;;;;5.63;1.23;;;6.50;17.10;;;;;;5023575;28;20056;-91
2023/01/19 12:51:49;;;;;;;8.57;1.15;;;6.20;99.90;;;;;;5024646;28;20049;-90
2023/01/19 12:54:30;;;;;;;1.77;0.68;;;6.00;1.00;;;;;;5017901;28;20496;-91
2023/01/19 12:57:16;;;;;;;5.25;0.90;;;5.80;99.90;;;;;;5043323;28;20227;-92
2023/01/19 12:59:42;;;;;;;6.30;0.85;;;5.70;99.90;;;;;;5061889;28;20048;-91
2023/01/19 13:02:20;;;;;;;2.70;0.70;;;5.60;99.90;;;;;;5041092;28;20049;-92
2023/01/19 13:05:26;;;;;;;2.97;0.70;;;5.60;99.90;;;;;;5044049;28;20123;-91
2023/01/19 13:08:01;;;;;;;2.22;0.90;;;5.60;99.90;;;;;;5045491;28;20200;-92
2023/01/19 13:10:45;;;;;;;;;;;5.70;99.90;;;;;;5039477;28;20100;-92
2023/01/19 13:13:23;;;;;;;5.47;0.90;;;5.80;99.90;;;;;;5044678;28;19916;-92
2023/01/19 13:15:49;;;;;;;5.80;1.50;;;5.60;56.00;;;;;;5043798;28;20060;-91
2023/01/19 13:18:44;;;;;;;5.93;1.10;;;5.60;1.00;;;;;;5042745;28;20041;-92
2023/01/19 13:21:38;;;;;;;8.55;1.20;;;5.50;99.80;;;;;;5025350;28;20053;-91
2023/01/19 13:24:09;;;;;;;6.97;1.23;;;5.40;25.80;;;;;;5036784;28;20446;-92
2023/01/19 13:26:41;;;;;;;5.57;1.60;;;5.50;40.20;;;;;;5025729;28;20048;-92
2023/01/19 13:29:13;;;;;;;1.75;0.77;;;5.60;99.90;;;;;;5027179;28;20084;-93
2023/01/19 13:31:41;;;;;;;8.52;1.10;;;5.70;99.90;;;;;;5076044;28;20049;-92